Time;durP1;ratioP1;P1;durP2;ratioP2;P2;SDS_P1;SDS_P2;PMS_P1;PMS_P2;Temp;Humidity;BMP_temperature;BMP_pressure;BME280_temperature;BME280_humidity;BME280_pressure;Samples;Min_cycle;Max_cycle;Signal;HPM_P1;HPM_P2
2022/11/21 00:00:43;;;;;;;;;;;;;;;3.41;100.00;95781.69;5075329;28;19963;-78
2022/11/21 00:03:09;;;;;;;;;;;;;;;3.42;100.00;95781.50;5076208;28;19952;-77
2022/11/21 00:05:38;;;;;;;;;;;;;;;3.39;100.00;95778.50;5093002;28;19964;-77
2022/11/21 00:08:04;;;;;;;;;;;;;;;3.38;100.00;95779.47;5092837;28;19951;-78
2022/11/21 00:10:30;;;;;;;;;;;;;;;3.34;100.00;95778.25;5076046;28;19955;-78
2022/11/21 00:12:56;;;;;;;;;;;;;;;3.30;100.00;95775.25;5093963;28;19997;-77
2022/11/21 00:15:23;;;;;;;;;;;;;;;3.25;100.00;95773.22;5092854;28;19954;-78
2022/11/21 00:17:50;;;;;;;;;;;;;;;3.23;100.00;95775.19;5076136;28;20143;-78
2022/11/21 00:20:16;;;;;;;;;;;;;;;3.22;100.00;95768.41;5092680;28;20358;-78
2022/11/21 00:22:42;;;;;;;;;;;;;;;3.19;100.00;95763.63;5094003;28;19951;-78
2022/11/21 00:25:08;;;;;;;;;;;;;;;3.14;100.00;95758.19;5092751;28;19953;-78
2022/11/21 00:27:34;;;;;;;;;;;;;;;3.12;100.00;95751.59;5094027;28;19947;-77
2022/11/21 00:30:00;;;;;;;;;;;;;;;3.09;100.00;95739.81;5076070;28;19950;-78
2022/11/21 00:32:25;;;;;;;;;;;;;;;2.98;100.00;95730.78;5092535;28;19951;-78
2022/11/21 00:34:51;;;;;;;;;;;;;;;2.90;100.00;95712.78;5093518;28;19974;-77
2022/11/21 00:37:17;;;;;;;;;;;;;;;2.84;100.00;95714.31;5093944;28;20040;-78
2022/11/21 00:39:43;;;;;;;;;;;;;;;2.79;100.00;95708.91;5092577;28;19965;-77
2022/11/21 00:42:09;;;;;;;;;;;;;;;2.79;100.00;95701.16;5092259;28;20485;-78
2022/11/21 00:44:35;;;;;;;;;;;;;;;2.80;100.00;95704.53;5092350;28;19951;-78
2022/11/21 00:47:01;;;;;;;;;;;;;;;2.83;100.00;95711.91;5076127;28;19961;-77
2022/11/21 00:49:27;;;;;;;;;;;;;;;2.88;100.00;95714.75;5092442;28;20026;-78
2022/11/21 00:51:53;;;;;;;;;;;;;;;2.94;100.00;95719.19;5093649;28;19973;-77
2022/11/21 00:54:19;;;;;;;;;;;;;;;2.98;100.00;95717.00;5092371;28;20450;-77
2022/11/21 00:56:45;;;;;;;;;;;;;;;3.01;100.00;95721.81;5092206;28;19994;-77
2022/11/21 00:59:11;;;;;;;;;;;;;;;3.05;100.00;95720.47;5092364;28;19977;-77
2022/11/21 01:01:37;;;;;;;;;;;;;;;3.10;100.00;95719.88;5093310;28;19950;-78
2022/11/21 01:04:02;;;;;;;;;;;;;;;3.11;100.00;95719.72;5085113;28;19958;-77
2022/11/21 01:06:28;;;;;;;;;;;;;;;3.14;100.00;95726.28;5093379;28;19953;-78
2022/11/21 01:08:54;;;;;;;;;;;;;;;3.17;100.00;95733.69;5092287;28;19957;-78
2022/11/21 01:11:20;;;;;;;;;;;;;;;3.19;100.00;95731.69;5093223;28;20016;-78
2022/11/21 01:13:47;;;;;;;;;;;;;;;3.20;100.00;95728.13;5096127;28;19949;-79
2022/11/21 01:16:14;;;;;;;;;;;;;;;3.18;100.00;95717.16;5079209;28;19957;-79
2022/11/21 01:18:41;;;;;;;;;;;;;;;3.19;100.00;95710.97;5118059;27;19953;-79
2022/11/21 01:21:11;;;;;;;;;;;;;;;3.21;100.00;95707.22;5097489;28;19969;-79
2022/11/21 01:23:37;;;;;;;;;;;;;;;3.25;100.00;95700.69;5096192;28;19942;-80
2022/11/21 01:26:22;;;;;;;;;;;;;;;3.28;100.00;95698.69;5097140;28;20064;-79
2022/11/21 01:28:48;;;;;;;;;;;;;;;3.30;100.00;95694.09;5096143;28;19953;-78
2022/11/21 01:31:16;;;;;;;;;;;;;;;3.30;100.00;95689.72;5096242;28;20029;-78
2022/11/21 01:33:42;;;;;;;;;;;;;;;3.31;100.00;95680.16;5096866;28;19979;-81
2022/11/21 01:36:13;;;;;;;;;;;;;;;3.30;100.00;95675.97;5095553;28;20404;-81
2022/11/21 01:38:40;;;;;;;;;;;;;;;3.26;100.00;95667.78;5097067;28;19950;-81
2022/11/21 01:41:06;;;;;;;;;;;;;;;3.23;100.00;95670.75;5096893;28;19971;-78
2022/11/21 01:43:32;;;;;;;;;;;;;;;3.16;100.00;95662.94;5095493;28;19962;-80
2022/11/21 01:46:00;;;;;;;;;;;;;;;3.13;100.00;95662.50;5095669;28;19954;-78
2022/11/21 01:48:29;;;;;;;;;;;;;;;3.12;100.00;95658.34;5078755;28;20458;-80
2022/11/21 01:50:57;;;;;;;;;;;;;;;3.13;100.00;95659.91;5095599;28;19953;-78
2022/11/21 01:53:23;;;;;;;;;;;;;;;3.15;100.00;95655.34;5096710;28;19950;-79
2022/11/21 01:55:50;;;;;;;;;;;;;;;3.16;100.00;95669.91;5096743;28;19940;-78
2022/11/21 01:58:16;;;;;;;;;;;;;;;3.19;100.00;95669.53;5095787;28;19954;-80
2022/11/21 02:00:44;;;;;;;;;;;;;;;3.23;100.00;95666.38;5095473;28;20335;-81
2022/11/21 02:03:14;;;;;;;;;;;;;;;3.34;100.00;95661.63;5078208;28;20311;-83
2022/11/21 02:05:40;;;;;;;;;;;;;;;3.38;100.00;95673.22;5095482;28;19950;-81
2022/11/21 02:08:12;;;;;;;;;;;;;;;3.40;100.00;95668.63;5096316;28;19962;-82
2022/11/21 02:10:44;;;;;;;;;;;;;;;3.37;100.00;95671.63;5095010;28;19949;-81
2022/11/21 02:13:10;;;;;;;;;;;;;;;3.36;100.00;95662.25;5096659;28;20461;-80
2022/11/21 02:15:36;;;;;;;;;;;;;;;3.36;100.00;95664.81;5094967;28;19947;-80
2022/11/21 02:18:04;;;;;;;;;;;;;;;3.35;100.00;95660.66;5094942;28;20383;-80
2022/11/21 02:20:30;;;;;;;;;;;;;;;3.32;100.00;95661.84;5095042;28;19969;-81
2022/11/21 02:23:10;;;;;;;;;;;;;;;3.30;100.00;95663.81;5094893;28;20019;-82
2022/11/21 02:25:37;;;;;;;;;;;;;;;3.31;100.00;95660.22;5078188;28;20417;-81
2022/11/21 02:28:05;;;;;;;;;;;;;;;3.33;100.00;95660.03;5094936;28;19955;-81
2022/11/21 02:30:33;;;;;;;;;;;;;;;3.33;100.00;95663.44;5077652;28;19950;-81
2022/11/21 02:32:59;;;;;;;;;;;;;;;3.32;100.00;95664.44;5094497;28;20383;-80
2022/11/21 02:35:25;;;;;;;;;;;;;;;3.31;100.00;95665.41;5096562;28;20010;-79
2022/11/21 02:38:11;;;;;;;;;;;;;;;3.27;100.00;95664.19;5094814;28;20324;-79
2022/11/21 02:40:41;;;;;;;;;;;;;;;3.27;100.00;95666.00;5088125;28;19968;-79
2022/11/21 02:43:11;;;;;;;;;;;;;;;3.25;100.00;95664.41;5095974;28;19957;-79
2022/11/21 02:45:38;;;;;;;;;;;;;;;3.24;100.00;95660.19;5095609;28;19949;-79
2022/11/21 02:48:04;;;;;;;;;;;;;;;3.25;100.00;95656.63;5094778;28;20431;-79
2022/11/21 02:50:31;;;;;;;;;;;;;;;3.25;100.00;95654.03;5094630;28;19963;-79
2022/11/21 02:52:57;;;;;;;;;;;;;;;3.25;100.00;95648.03;5094351;28;19953;-79
2022/11/21 02:55:24;;;;;;;;;;;;;;;3.25;100.00;95646.25;5095389;28;20005;-79
2022/11/21 02:57:50;;;;;;;;;;;;;;;3.27;100.00;95633.09;5094857;28;19951;-79
2022/11/21 03:00:16;;;;;;;;;;;;;;;3.30;100.00;95631.91;5094539;28;19967;-79
2022/11/21 03:02:42;;;;;;;;;;;;;;;3.31;100.00;95629.13;5077164;28;19951;-79
2022/11/21 03:05:10;;;;;;;;;;;;;;;3.34;100.00;95633.13;5095482;28;19955;-78
2022/11/21 03:07:36;;;;;;;;;;;;;;;3.40;100.00;95632.34;5095311;28;20383;-79
2022/11/21 03:10:02;;;;;;;;;;;;;;;3.42;100.00;95626.00;5060659;28;20035;-79
2022/11/21 03:12:28;;;;;;;;;;;;;;;3.44;100.00;95626.63;5095430;28;20317;-79
2022/11/21 03:14:54;;;;;;;;;;;;;;;3.44;100.00;95628.38;5093880;28;19957;-78
2022/11/21 03:17:20;;;;;;;;;;;;;;;3.44;100.00;95625.78;5077069;28;20423;-79
2022/11/21 03:19:46;;;;;;;;;;;;;;;3.42;100.00;95620.81;5095021;28;19984;-78
2022/11/21 03:22:13;;;;;;;;;;;;;;;3.43;100.00;95632.78;5093866;28;19956;-78
2022/11/21 03:24:38;;;;;;;;;;;;;;;3.49;100.00;95627.84;5076795;28;19957;-79
2022/11/21 03:27:04;;;;;;;;;;;;;;;3.50;100.00;95627.63;5093710;28;19996;-79
2022/11/21 03:29:30;;;;;;;;;;;;;;;3.51;100.00;95631.00;5076713;28;19992;-79
2022/11/21 03:31:56;;;;;;;;;;;;;;;3.51;100.00;95631.81;5076759;28;20013;-79
2022/11/21 03:34:23;;;;;;;;;;;;;;;3.53;100.00;95629.00;5092722;28;19980;-79
2022/11/21 03:36:49;;;;;;;;;;;;;;;3.54;100.00;95625.44;5093317;28;19965;-80
2022/11/21 03:39:15;;;;;;;;;;;;;;;3.55;100.00;95625.25;5094472;28;19965;-81
2022/11/21 03:41:41;;;;;;;;;;;;;;;3.55;100.00;95629.63;5076795;28;20012;-80
2022/11/21 03:44:08;;;;;;;;;;;;;;;3.54;100.00;95621.06;5093532;28;20023;-81
2022/11/21 03:46:36;;;;;;;;;;;;;;;3.55;100.00;95614.06;5076398;28;19950;-80
2022/11/21 03:49:02;;;;;;;;;;;;;;;3.57;100.00;95615.50;5093178;28;20403;-80
2022/11/21 03:51:28;;;;;;;;;;;;;;;3.59;100.00;95612.69;5076549;28;19962;-78
2022/11/21 03:53:54;;;;;;;;;;;;;;;3.62;100.00;95615.69;5076018;28;20042;-78
2022/11/21 03:56:20;;;;;;;;;;;;;;;3.65;100.00;95604.97;5094422;28;19957;-78
2022/11/21 03:58:46;;;;;;;;;;;;;;;3.65;100.00;95606.72;5093018;28;19958;-78
2022/11/21 04:01:12;;;;;;;;;;;;;;;3.61;100.00;95595.97;5092975;28;20334;-78
2022/11/21 04:03:39;;;;;;;;;;;;;;;3.62;100.00;95596.75;5094460;28;19947;-78
2022/11/21 04:06:05;;;;;;;;;;;;;;;3.62;100.00;95599.34;5094178;28;19962;-78
2022/11/21 04:08:31;;;;;;;;;;;;;;;3.63;100.00;95599.16;5093011;28;19973;-78
2022/11/21 04:10:57;;;;;;;;;;;;;;;3.66;100.00;95592.78;5093009;28;19962;-79
2022/11/21 04:13:23;;;;;;;;;;;;;;;3.68;100.00;95587.41;5092845;28;20309;-78
2022/11/21 04:15:49;;;;;;;;;;;;;;;3.70;100.00;95580.25;5093214;28;19961;-78
2022/11/21 04:18:15;;;;;;;;;;;;;;;3.70;100.00;95585.44;5092870;28;19957;-79
2022/11/21 04:20:41;;;;;;;;;;;;;;;3.70;100.00;95583.63;5092789;28;19965;-79
2022/11/21 04:23:07;;;;;;;;;;;;;;;3.70;100.00;95590.63;5058999;28;19960;-78
2022/11/21 04:25:33;;;;;;;;;;;;;;;3.68;100.00;95585.63;5092619;28;19962;-79
2022/11/21 04:27:59;;;;;;;;;;;;;;;3.66;100.00;95593.56;5094257;28;19957;-78
2022/11/21 04:30:25;;;;;;;;;;;;;;;3.63;100.00;95590.56;5094113;28;19950;-78
2022/11/21 04:32:55;;;;;;;;;;;;;;;3.61;100.00;95584.78;5093473;28;19962;-78
2022/11/21 04:35:21;;;;;;;;;;;;;;;3.61;100.00;95579.59;5093897;28;19983;-78
2022/11/21 04:37:47;;;;;;;;;;;;;;;3.58;100.00;95588.56;5092593;28;19954;-78
2022/11/21 04:40:13;;;;;;;;;;;;;;;3.58;100.00;95585.19;5093510;28;19998;-78
2022/11/21 04:42:43;;;;;;;;;;;;;;;3.55;100.00;95586.38;5075724;28;19951;-79
2022/11/21 04:45:10;;;;;;;;;;;;;;;3.53;100.00;95575.41;5076028;28;20418;-78
2022/11/21 04:47:39;;;;;;;;;;;;;;;3.53;100.00;95579.75;5075323;28;19954;-78
2022/11/21 04:50:06;;;;;;;;;;;;;;;3.53;100.00;95582.34;5093412;28;19958;-78
2022/11/21 04:52:32;;;;;;;;;;;;;;;3.52;100.00;95578.19;5093971;28;19956;-78
2022/11/21 04:54:58;;;;;;;;;;;;;;;3.48;100.00;95579.56;5093593;28;20011;-79
2022/11/21 04:57:24;;;;;;;;;;;;;;;3.47;100.00;95588.34;5092491;28;19959;-79
2022/11/21 04:59:50;;;;;;;;;;;;;;;3.44;100.00;95587.75;5092634;28;19945;-79
2022/11/21 05:02:16;;;;;;;;;;;;;;;3.42;100.00;95576.75;5092323;28;19952;-79
2022/11/21 05:04:42;;;;;;;;;;;;;;;3.39;100.00;95566.78;5058812;28;19958;-80
2022/11/21 05:07:07;;;;;;;;;;;;;;;3.37;100.00;95567.97;5092040;28;19962;-79
2022/11/21 05:09:33;;;;;;;;;;;;;;;3.37;100.00;95562.78;5092707;28;19953;-79
2022/11/21 05:14:44;;;;;;;;;;;;;;;3.38;100.00;95590.28;5093518;28;19963;-79
2022/11/21 05:17:10;;;;;;;;;;;;;;;3.37;100.00;95597.25;5093193;28;19988;-80
2022/11/21 05:19:36;;;;;;;;;;;;;;;3.35;100.00;95596.66;5075116;28;19953;-79
2022/11/21 05:22:01;;;;;;;;;;;;;;;3.34;100.00;95605.44;5093182;28;20049;-79
2022/11/21 05:24:27;;;;;;;;;;;;;;;3.35;100.00;95609.63;5093423;28;20004;-79
2022/11/21 05:26:53;;;;;;;;;;;;;;;3.37;100.00;95605.03;5092056;28;19947;-80
2022/11/21 05:29:20;;;;;;;;;;;;;;;3.37;100.00;95605.03;5075234;28;20327;-80
2022/11/21 05:31:46;;;;;;;;;;;;;;;3.37;100.00;95597.25;5093070;28;19953;-81
2022/11/21 05:34:12;;;;;;;;;;;;;;;3.37;100.00;95593.88;5092167;28;20033;-81
2022/11/21 05:36:37;;;;;;;;;;;;;;;3.37;100.00;95591.28;5092114;28;19960;-80
2022/11/21 05:39:04;;;;;;;;;;;;;;;3.35;100.00;95590.69;5092213;28;19957;-81
2022/11/21 05:41:30;;;;;;;;;;;;;;;3.34;100.00;95596.84;5091701;28;19964;-80
2022/11/21 05:43:56;;;;;;;;;;;;;;;3.31;100.00;95592.06;5093198;28;19952;-82
2022/11/21 05:46:23;;;;;;;;;;;;;;;3.29;100.00;95609.59;5058156;28;20407;-80
2022/11/21 05:48:49;;;;;;;;;;;;;;;3.24;100.00;95616.16;5093103;28;19963;-81
2022/11/21 05:51:16;;;;;;;;;;;;;;;3.21;100.00;95613.94;5091738;28;19953;-81
2022/11/21 05:53:42;;;;;;;;;;;;;;;3.20;100.00;95614.13;5075057;28;19956;-80
2022/11/21 05:56:10;;;;;;;;;;;;;;;3.18;100.00;95609.13;5092075;28;19957;-79
2022/11/21 05:58:36;;;;;;;;;;;;;;;3.19;100.00;95612.53;5092965;28;19957;-80
2022/11/21 06:01:03;;;;;;;;;;;;;;;3.19;100.00;95610.75;5096551;28;19969;-80
2022/11/21 06:03:31;;;;;;;;;;;;;;;3.17;100.00;95614.50;5095355;28;20300;-78
2022/11/21 06:06:15;;;;;;;;;;;;;;;3.15;100.00;95609.53;5078452;28;19968;-79
2022/11/21 06:08:42;;;;;;;;;;;;;;;3.15;100.00;95606.13;5078655;28;20302;-78
2022/11/21 06:11:11;;;;;;;;;;;;;;;3.14;100.00;95607.91;5061457;28;19961;-78
2022/11/21 06:13:37;;;;;;;;;;;;;;;3.14;100.00;95601.94;5095117;28;19953;-78
2022/11/21 06:16:04;;;;;;;;;;;;;;;3.12;100.00;95604.72;5092398;28;19957;-78
2022/11/21 06:18:32;;;;;;;;;;;;;;;3.09;100.00;95604.31;5078217;28;19956;-78
2022/11/21 06:21:01;;;;;;;;;;;;;;;3.07;100.00;95601.09;5095016;28;19965;-79
2022/11/21 06:23:27;;;;;;;;;;;;;;;3.03;100.00;95609.25;5096103;28;19957;-78
2022/11/21 06:25:57;;;;;;;;;;;;;;;3.00;100.00;95604.47;5094936;28;20059;-78
2022/11/21 06:28:24;;;;;;;;;;;;;;;2.97;100.00;95614.41;5094745;28;20428;-78
2022/11/21 06:30:50;;;;;;;;;;;;;;;2.96;100.00;95611.03;5078138;28;19958;-78
2022/11/21 06:33:18;;;;;;;;;;;;;;;2.94;100.00;95607.84;5094445;28;19978;-78
2022/11/21 06:35:44;;;;;;;;;;;;;;;2.92;100.00;95609.81;5094641;28;19958;-77
2022/11/21 06:38:12;;;;;;;;;;;;;;;2.93;100.00;95611.41;5061164;28;20410;-79
2022/11/21 06:40:38;;;;;;;;;;;;;;;2.92;100.00;95614.16;5077380;28;19962;-78
2022/11/21 06:43:04;;;;;;;;;;;;;;;2.90;100.00;95610.97;5094892;28;19954;-78
2022/11/21 06:45:30;;;;;;;;;;;;;;;2.90;100.00;95616.97;5094383;28;20010;-78
2022/11/21 06:47:56;;;;;;;;;;;;;;;2.86;100.00;95613.16;5094539;28;20009;-78
2022/11/21 06:50:22;;;;;;;;;;;;;;;2.85;100.00;95616.72;5095588;28;19956;-78
2022/11/21 06:52:48;;;;;;;;;;;;;;;2.84;100.00;95612.53;5077555;28;20001;-78
2022/11/21 06:55:14;;;;;;;;;;;;;;;2.83;100.00;95611.75;5094255;28;19952;-78
2022/11/21 06:57:40;;;;;;;;;;;;;;;2.81;100.00;95620.69;5077579;28;19955;-78
2022/11/21 07:00:06;;;;;;;;;;;;;;;2.78;100.00;95621.06;5095471;28;20033;-79
2022/11/21 07:02:32;;;;;;;;;;;;;;;2.79;100.00;95628.66;5077569;28;19955;-78
2022/11/21 07:04:58;;;;;;;;;;;;;;;2.79;100.00;95628.66;5077046;28;19980;-79
2022/11/21 07:07:24;;;;;;;;;;;;;;;2.81;100.00;95637.03;5094356;28;19963;-78
2022/11/21 07:09:49;;;;;;;;;;;;;;;2.83;100.00;95627.28;5094285;28;20006;-78
2022/11/21 07:15:05;;;;;;;;;;;;;;;2.85;100.00;95619.31;5084826;28;19952;-78
2022/11/21 07:17:31;;;;;;;;;;;;;;;2.81;100.00;95624.09;5088163;28;19956;-78
2022/11/21 07:19:57;;;;;;;;;;;;;;;2.80;100.00;95619.88;5094069;28;20007;-78
2022/11/21 07:22:22;;;;;;;;;;;;;;;2.81;100.00;95621.50;5060198;28;19972;-78
2022/11/21 07:24:48;;;;;;;;;;;;;;;2.80;100.00;95625.06;5077092;28;19951;-78
2022/11/21 07:27:14;;;;;;;;;;;;;;;2.83;100.00;95623.88;5076850;28;20037;-78
2022/11/21 07:29:40;;;;;;;;;;;;;;;2.90;100.00;95623.91;5076762;28;19951;-78
2022/11/21 07:32:06;;;;;;;;;;;;;;;3.09;100.00;95623.25;5093503;28;20019;-78
2022/11/21 07:34:32;;;;;;;;;;;;;;;3.33;100.00;95619.38;5076594;28;19976;-78
2022/11/21 07:36:58;;;;;;;;;;;;;;;3.47;100.00;95615.06;5093242;28;19960;-78
2022/11/21 07:39:24;;;;;;;;;;;;;;;3.55;100.00;95614.06;5059971;28;19954;-79
2022/11/21 07:41:50;;;;;;;;;;;;;;;3.71;100.00;95608.53;5093486;28;20017;-78
2022/11/21 07:44:15;;;;;;;;;;;;;;;3.95;100.00;95614.19;5094488;28;20031;-78
2022/11/21 07:46:41;;;;;;;;;;;;;;;3.98;100.00;95617.19;5093472;28;19990;-78
2022/11/21 07:49:07;;;;;;;;;;;;;;;4.05;100.00;95606.81;5093407;28;20017;-78
2022/11/21 07:51:33;;;;;;;;;;;;;;;4.10;100.00;95601.84;5093277;28;19999;-79
2022/11/21 07:53:59;;;;;;;;;;;;;;;4.16;100.00;95601.06;5076184;28;19979;-78
2022/11/21 07:56:25;;;;;;;;;;;;;;;4.30;100.00;95594.06;5076399;28;19955;-78
2022/11/21 07:58:51;;;;;;;;;;;;;;;4.51;100.00;95600.88;5076236;28;19957;-79
2022/11/21 08:01:17;;;;;;;;;;;;;;;4.85;100.00;95599.03;5094255;28;19973;-78
2022/11/21 08:03:43;;;;;;;;;;;;;;;5.17;100.00;95607.78;5076128;28;19962;-79
2022/11/21 08:06:11;;;;;;;;;;;;;;;5.43;100.00;95604.28;5076456;28;20483;-79
2022/11/21 08:08:36;;;;;;;;;;;;;;;5.65;99.81;95602.19;5076201;28;19952;-80
2022/11/21 08:11:03;;;;;;;;;;;;;;;5.62;98.05;95604.41;5093117;28;20008;-78
2022/11/21 08:13:29;;;;;;;;;;;;;;;5.43;98.00;95604.28;5092700;28;19961;-80
2022/11/21 08:15:55;;;;;;;;;;;;;;;5.25;99.28;95607.56;5092798;28;20011;-81
2022/11/21 08:18:21;;;;;;;;;;;;;;;5.09;99.94;95600.97;5075778;28;19999;-81
2022/11/21 08:20:47;;;;;;;;;;;;;;;4.93;100.00;95595.44;5075442;28;19969;-80
2022/11/21 08:23:13;;;;;;;;;;;;;;;5.04;100.00;95594.78;5092870;28;19959;-81
2022/11/21 08:25:40;;;;;;;;;;;;;;;5.33;100.00;95590.91;5093878;28;19962;-82
2022/11/21 08:28:07;;;;;;;;;;;;;;;5.68;100.00;95600.97;5092996;28;19960;-81
2022/11/21 08:30:32;;;;;;;;;;;;;;;5.98;99.55;95590.03;5092630;28;19957;-81
2022/11/21 08:32:58;;;;;;;;;;;;;;;6.10;95.52;95572.75;5075363;28;19958;-81
2022/11/21 08:35:25;;;;;;;;;;;;;;;6.15;96.50;95585.13;5093166;28;19955;-80
2022/11/21 08:37:58;;;;;;;;;;;;;;;6.31;98.04;95584.59;5092513;28;19953;-81
2022/11/21 08:40:24;;;;;;;;;;;;;;;6.54;100.00;95601.47;5083150;28;19965;-82
2022/11/21 08:43:01;;;;;;;;;;;;;;;6.77;97.01;95572.22;5076090;28;19969;-81
2022/11/21 08:45:27;;;;;;;;;;;;;;;6.86;95.01;95556.06;5092623;28;19959;-81
2022/11/21 08:47:53;;;;;;;;;;;;;;;6.80;95.30;95572.56;5093558;28;19953;-81
2022/11/21 08:50:19;;;;;;;;;;;;;;;6.50;93.88;95562.81;5075744;28;19973;-81
2022/11/21 08:52:45;;;;;;;;;;;;;;;6.24;96.66;95578.66;5075463;28;19962;-80
2022/11/21 08:55:11;;;;;;;;;;;;;;;6.03;96.27;95566.78;5075413;28;20396;-81
2022/11/21 08:57:38;;;;;;;;;;;;;;;6.06;97.97;95576.78;5093730;28;19955;-81
2022/11/21 09:00:04;;;;;;;;;;;;;;;6.19;98.75;95570.69;5093419;28;19950;-81
2022/11/21 09:02:30;;;;;;;;;;;;;;;6.42;99.75;95583.13;5093761;28;20330;-80
2022/11/21 09:04:56;;;;;;;;;;;;;;;6.64;100.00;95576.53;5075218;28;19997;-81
2022/11/21 09:07:22;;;;;;;;;;;;;;;6.88;98.15;95571.50;5094046;28;20359;-80
2022/11/21 09:09:48;;;;;;;;;;;;;;;6.91;95.51;95555.44;5092419;28;19952;-80
2022/11/21 09:12:13;;;;;;;;;;;;;;;6.88;99.36;95580.09;5083960;28;19952;-80
2022/11/21 09:20:08;;;;;;;;;;;;;;;6.11;99.05;95576.97;5092285;28;19963;-81
2022/11/21 09:22:34;;;;;;;;;;;;;;;5.92;100.00;95564.81;5092214;28;20044;-82
2022/11/21 09:25:00;;;;;;;;;;;;;;;5.80;100.00;95556.91;5092133;28;20002;-82
2022/11/21 09:27:26;;;;;;;;;;;;;;;5.70;100.00;95554.75;5092386;28;19990;-81
2022/11/21 09:29:52;;;;;;;;;;;;;;;5.64;100.00;95560.78;5092312;28;20002;-82
2022/11/21 09:32:18;;;;;;;;;;;;;;;5.61;100.00;95567.19;5075422;28;20364;-81
2022/11/21 09:34:44;;;;;;;;;;;;;;;5.65;100.00;95567.59;5095055;28;19973;-81
2022/11/21 09:37:10;;;;;;;;;;;;;;;5.80;100.00;95562.09;5095927;28;20368;-81
2022/11/21 09:39:36;;;;;;;;;;;;;;;6.04;100.00;95552.75;5097315;28;20380;-82
2022/11/21 09:42:05;;;;;;;;;;;;;;;6.18;99.80;95533.44;5095886;28;20329;-81
2022/11/21 09:44:57;;;;;;;;;;;;;;;6.39;100.00;95554.91;5129708;27;19953;-81
2022/11/21 09:47:30;;;;;;;;;;;;;;;6.58;100.00;95538.31;5097043;28;20428;-82
2022/11/21 09:50:19;;;;;;;;;;;;;;;6.77;98.04;95528.69;5095739;28;20318;-82
2022/11/21 09:52:49;;;;;;;;;;;;;;;6.77;100.00;95538.34;5091052;28;19953;-84
2022/11/21 09:55:33;;;;;;;;;;;;;;;6.87;100.00;95525.59;5095614;28;19958;-83
2022/11/21 09:58:19;;;;;;;;;;;;;;;7.10;100.00;95509.31;5096709;28;19952;-84
2022/11/21 10:00:45;;;;;;;;;;;;;;;7.27;95.67;95488.66;5094546;28;19949;-84
2022/11/21 10:03:11;;;;;;;;;;;;;;;7.46;98.14;95503.22;5095384;28;20420;-84
2022/11/21 10:05:42;;;;;;;;;;;;;;;7.51;94.04;95472.03;5095323;28;19959;-84
2022/11/21 10:08:18;;;;;;;;;;;;;;;7.51;94.64;95477.25;5096591;28;20399;-83
2022/11/21 10:10:47;;;;;;;;;;;;;;;7.57;95.43;95485.25;5078390;28;20293;-83
2022/11/21 10:13:27;;;;;;;;;;;;;;;7.57;91.54;95457.31;5096801;28;19956;-83
2022/11/21 10:16:04;;;;;;;;;;;;;;;7.39;89.83;95445.16;5078573;28;19958;-83
2022/11/21 10:18:54;;;;;;;;;;;;;;;7.31;93.11;95463.72;5095148;28;19953;-83
2022/11/21 10:21:23;;;;;;;;;;;;;;;7.44;94.50;95460.13;5096065;28;20438;-83
2022/11/21 10:24:08;;;;;;;;;;;;;;;7.49;93.77;95460.25;5095166;28;19958;-83
2022/11/21 10:26:45;;;;;;;;;;;;;;;7.62;94.91;95467.09;5078053;28;19955;-83
2022/11/21 10:29:18;;;;;;;;;;;;;;;7.75;94.30;95463.50;5094851;28;19956;-83
2022/11/21 10:31:45;;;;;;;;;;;;;;;7.80;89.11;95412.22;5094820;28;20404;-82
2022/11/21 10:34:18;;;;;;;;;;;;;;;7.80;90.03;95422.66;5077600;28;19983;-83
2022/11/21 10:36:46;;;;;;;;;;;;;;;7.87;92.91;95441.63;5095265;28;19956;-82
2022/11/21 10:39:17;;;;;;;;;;;;;;;7.92;88.69;95413.03;5094640;28;19958;-82
2022/11/21 10:41:45;;;;;;;;;;;;;;;7.99;88.48;95406.91;5095932;28;20328;-82
2022/11/21 10:47:26;;;;;;;;;;;;;;;8.05;88.21;95398.94;5080324;28;19951;-81
2022/11/21 10:50:12;;;;;;;;;;;;;;;8.12;84.94;95373.50;5095806;28;19957;-81
2022/11/21 10:52:44;;;;;;;;;;;;;;;8.23;87.87;95397.22;5066206;28;19957;-81
2022/11/21 10:55:13;;;;;;;;;;;;;;;8.32;87.49;95393.28;5094435;28;19954;-81
2022/11/21 10:57:46;;;;;;;;;;;;;;;8.38;87.24;95386.31;5095818;28;19950;-80
2022/11/21 11:00:14;;;;;;;;;;;;;;;8.30;84.99;95366.59;5094165;28;19954;-80
2022/11/21 11:02:41;;;;;;;;;;;;;;;8.44;86.60;95373.19;5094126;28;20341;-80
2022/11/21 11:05:13;;;;;;;;;;;;;;;8.44;85.59;95356.69;5094249;28;20427;-80
2022/11/21 11:07:39;;;;;;;;;;;;;;;8.45;86.75;95364.31;5094029;28;19943;-79
2022/11/21 11:10:20;;;;;;;;;;;;;;;8.60;84.31;95345.50;5060407;28;19958;-79
2022/11/21 11:15:32;;;;;;;;;;;;;;;9.05;84.32;95317.81;5083311;28;19951;-79
2022/11/21 11:18:02;;;;;;;;;;;;;;;9.23;84.69;95329.91;5060233;28;20289;-79
2022/11/21 11:20:28;;;;;;;;;;;;;;;9.34;79.07;95271.47;5094523;28;19944;-79
2022/11/21 11:22:54;;;;;;;;;;;;;;;9.44;81.17;95289.94;5094296;28;19991;-79
2022/11/21 11:25:21;;;;;;;;;;;;;;;9.46;77.85;95242.63;5060529;28;20008;-79
2022/11/21 11:27:47;;;;;;;;;;;;;;;9.46;82.85;95298.34;5096951;28;19962;-78
2022/11/21 11:30:14;;;;;;;;;;;;;;;9.48;80.60;95267.50;5094262;28;19955;-79
2022/11/21 11:32:40;;;;;;;;;;;;;;;9.48;76.76;95223.00;5094495;28;19955;-79
2022/11/21 11:35:12;;;;;;;;;;;;;;;9.40;77.33;95233.09;5096075;28;19977;-79
2022/11/21 11:37:40;;;;;;;;;;;;;;;9.28;77.21;95238.41;5094291;28;19950;-79
2022/11/21 11:40:14;;;;;;;;;;;;;;;9.21;77.19;95220.28;5094845;28;19963;-79
2022/11/21 11:48:35;;;;;;;;;;;;;;;9.01;73.97;95183.34;5095037;28;19970;-78
2022/11/21 11:51:03;;;;;;;;;;;;;;;8.96;77.45;95219.88;5094857;28;19959;-79
2022/11/21 11:53:36;;;;;;;;;;;;;;;8.93;76.22;95202.84;5076820;28;20317;-78
2022/11/21 11:56:14;;;;;;;;;;;;;;;8.90;77.34;95214.59;5092851;28;19953;-78
2022/11/21 11:58:44;;;;;;;;;;;;;;;8.89;76.44;95205.16;5093889;28;19947;-78
2022/11/21 12:01:33;;;;;;;;;;;;;;;8.87;75.30;95188.91;5094400;28;20028;-78
2022/11/21 12:04:05;;;;;;;;;;;;;;;8.85;77.25;95208.47;5076471;28;19970;-78
2022/11/21 12:06:50;;;;;;;;;;;;;;;8.87;78.88;95222.09;5092909;28;19953;-78
2022/11/21 12:09:16;;;;;;;;;;;;;;;8.91;82.01;95239.69;5119187;27;19955;-79
2022/11/21 12:17:32;;;;;;;;;;;;;;;9.03;74.96;95149.91;5081063;28;19960;-79
2022/11/21 12:20:01;;;;;;;;;;;;;;;8.60;74.64;95152.16;5092972;28;19973;-78
2022/11/21 12:22:27;;;;;;;;;;;;;;;8.36;79.25;95195.06;5092591;28;20341;-79
2022/11/21 12:24:53;;;;;;;;;;;;;;;8.22;77.37;95173.69;5094621;28;19942;-78
2022/11/21 12:27:24;;;;;;;;;;;;;;;8.09;81.07;95209.47;5092713;28;20289;-78
2022/11/21 12:30:09;;;;;;;;;;;;;;;7.98;85.48;95230.38;5093024;28;19960;-78
2022/11/21 12:32:55;;;;;;;;;;;;;;;8.03;83.12;95193.97;5075918;28;19961;-79
2022/11/21 12:35:31;;;;;;;;;;;;;;;7.95;81.96;95186.50;5089712;28;19961;-79
2022/11/21 12:38:06;;;;;;;;;;;;;;;7.92;90.55;95238.13;5092721;28;19961;-79
2022/11/21 12:40:32;;;;;;;;;;;;;;;8.10;91.26;95215.50;5092465;28;19953;-82
2022/11/21 12:42:58;;;;;;;;;;;;;;;8.23;82.78;95152.56;5076572;28;20494;-78
2022/11/21 12:45:26;;;;;;;;;;;;;;;8.26;81.75;95143.47;5093918;28;19973;-78
2022/11/21 12:56:39;;;;;;;;;;;;;;;8.40;83.75;95130.88;5095358;28;19947;-76
2022/11/21 12:59:07;;;;;;;;;;;;;;;8.40;84.53;95136.09;5093868;28;19955;-77
2022/11/21 13:01:55;;;;;;;;;;;;;;;8.33;81.25;95110.13;5092221;28;19964;-78
2022/11/21 13:04:27;;;;;;;;;;;;;;;8.18;77.03;95078.56;5093862;28;19972;-77
2022/11/21 13:06:55;;;;;;;;;;;;;;;8.03;79.87;95099.97;5082744;28;20336;-79
2022/11/21 13:09:22;;;;;;;;;;;;;;;7.90;82.01;95122.72;5081287;28;19956;-78
2022/11/21 13:12:00;;;;;;;;;;;;;;;7.85;83.00;95127.88;5097849;28;19958;-78
2022/11/21 13:14:35;;;;;;;;;;;;;;;7.85;83.24;95111.38;5097241;28;19945;-78
2022/11/21 13:17:04;;;;;;;;;;;;;;;7.83;80.94;95093.38;5099076;28;20327;-79
2022/11/21 13:19:33;;;;;;;;;;;;;;;7.79;81.98;95109.72;5082091;28;19948;-78
2022/11/21 13:21:59;;;;;;;;;;;;;;;7.75;82.24;95100.75;5084113;28;20330;-79
2022/11/21 13:24:43;;;;;;;;;;;;;;;7.73;85.36;95122.69;5099750;28;19955;-78
2022/11/21 13:27:30;;;;;;;;;;;;;;;7.70;84.88;95102.25;5096154;28;19945;-78
2022/11/21 13:30:05;;;;;;;;;;;;;;;7.72;86.59;95113.25;5097656;28;19956;-78
2022/11/21 13:32:43;;;;;;;;;;;;;;;7.71;84.57;95093.41;5096005;28;19947;-78